CheckWX is a tool to help pilots better visualize weather data.  It is not intended as a substitute for an official pre-flight weather briefing.

20:04:32 UTC

SKPE TAF
Matecaña International Airport
Pereira, Colombia
TAF SKPE 052230Z 0600/0624 32006KT 9999 SCT015 SCT080 BECMG 0602/0603 VRB02KT PROB40 TEMPO 0602/0606 5000 DZRA BKN010 TEMPO 0608/0611 5000 DZ BR TX26/0619Z TN18/0610Z

Jul-6@
00:00 UTC

Jul-6 @ 00:00 UTC

Jul-6@
02:00 UTC

Jul-6 @ 02:00 UTC

TAF SKPE 052230Z 0600/0624 32006KT 9999 SCT015 SCT080

Expired

Wind
  • 320° at 6 KTS
Cloud Levels
  • Scattered at 1,500' AGL
  • Scattered at 8,000' AGL

Jul-6@
02:00 UTC

Jul-6 @ 02:00 UTC

Jul-6@
06:00 UTC

Jul-6 @ 06:00 UTC

PROB40 TEMPO 0602/0606 5000 DZRA BKN010

Expired

Conditions
Drizzle, Rain
Cloud Levels
  • Broken at 1,000' AGL

Jul-6@
02:00 UTC

Jul-6 @ 02:00 UTC

Jul-7@
00:00 UTC

Jul-7 @ 00:00 UTC

BECMG 0602/0603 VRB02KT

Becoming

Becoming Conditions expected by Mon, Jul 6, 2020 @ 03:00 UTC

Wind
  • Variable at 2 KTS
Cloud Levels
  • Scattered at 1,500' AGL
  • Scattered at 8,000' AGL

Jul-6@
08:00 UTC

Jul-6 @ 08:00 UTC

Jul-6@
11:00 UTC

Jul-6 @ 11:00 UTC

TEMPO 0608/0611 5000 DZ BR TX26/0619Z TN18/0610Z

Expired

Conditions
Drizzle, Mist
Cloud Levels